sensor_id;sensor_type;location;lat;lon;timestamp;temperature;humidity
51029;DHT22;37054;52.054;8.600;2022-12-05T00:00:17;8.80;56.80
51029;DHT22;37054;52.054;8.600;2022-12-05T00:02:42;8.80;56.80
51029;DHT22;37054;52.054;8.600;2022-12-05T00:05:09;8.80;56.70
51029;DHT22;37054;52.054;8.600;2022-12-05T00:07:35;8.80;56.70
51029;DHT22;37054;52.054;8.600;2022-12-05T00:10:00;8.80;56.80
51029;DHT22;37054;52.054;8.600;2022-12-05T00:12:26;8.80;56.80
51029;DHT22;37054;52.054;8.600;2022-12-05T00:14:51;8.80;56.80
51029;DHT22;37054;52.054;8.600;2022-12-05T00:17:17;8.90;56.70
51029;DHT22;37054;52.054;8.600;2022-12-05T00:19:42;8.90;56.60
51029;DHT22;37054;52.054;8.600;2022-12-05T00:22:08;8.80;56.50
51029;DHT22;37054;52.054;8.600;2022-12-05T00:24:34;8.90;56.60
51029;DHT22;37054;52.054;8.600;2022-12-05T00:27:00;8.80;56.60
51029;DHT22;37054;52.054;8.600;2022-12-05T00:29:25;8.90;56.60
51029;DHT22;37054;52.054;8.600;2022-12-05T00:31:51;8.90;56.60
51029;DHT22;37054;52.054;8.600;2022-12-05T00:34:17;8.90;56.60
51029;DHT22;37054;52.054;8.600;2022-12-05T00:36:42;8.90;56.50
51029;DHT22;37054;52.054;8.600;2022-12-05T00:39:09;8.90;56.50
51029;DHT22;37054;52.054;8.600;2022-12-05T00:41:35;8.90;56.50
51029;DHT22;37054;52.054;8.600;2022-12-05T00:44:02;8.80;56.60
51029;DHT22;37054;52.054;8.600;2022-12-05T00:46:29;8.80;56.60
51029;DHT22;37054;52.054;8.600;2022-12-05T00:48:55;8.90;56.60
51029;DHT22;37054;52.054;8.600;2022-12-05T00:51:22;8.80;56.60
51029;DHT22;37054;52.054;8.600;2022-12-05T00:53:48;8.90;56.70
51029;DHT22;37054;52.054;8.600;2022-12-05T00:56:19;8.90;56.70
51029;DHT22;37054;52.054;8.600;2022-12-05T00:58:45;8.90;56.70
51029;DHT22;37054;52.054;8.600;2022-12-05T01:01:15;8.90;56.60
51029;DHT22;37054;52.054;8.600;2022-12-05T01:03:41;8.90;56.70
51029;DHT22;37054;52.054;8.600;2022-12-05T01:06:07;8.90;56.70
51029;DHT22;37054;52.054;8.600;2022-12-05T01:08:33;8.90;56.80
51029;DHT22;37054;52.054;8.600;2022-12-05T01:10:59;8.90;56.80
51029;DHT22;37054;52.054;8.600;2022-12-05T01:13:26;8.90;56.80
51029;DHT22;37054;52.054;8.600;2022-12-05T01:15:52;9.00;56.80
51029;DHT22;37054;52.054;8.600;2022-12-05T01:18:17;9.00;56.70
51029;DHT22;37054;52.054;8.600;2022-12-05T01:20:44;9.00;56.70
51029;DHT22;37054;52.054;8.600;2022-12-05T01:23:10;9.00;56.70
51029;DHT22;37054;52.054;8.600;2022-12-05T01:25:40;9.00;56.60
51029;DHT22;37054;52.054;8.600;2022-12-05T01:28:06;9.00;56.60
51029;DHT22;37054;52.054;8.600;2022-12-05T01:30:31;9.00;56.60
51029;DHT22;37054;52.054;8.600;2022-12-05T01:32:57;9.00;56.60
51029;DHT22;37054;52.054;8.600;2022-12-05T01:35:23;9.00;56.40
51029;DHT22;37054;52.054;8.600;2022-12-05T01:37:49;9.00;56.40
51029;DHT22;37054;52.054;8.600;2022-12-05T01:40:17;9.00;56.50
51029;DHT22;37054;52.054;8.600;2022-12-05T01:42:42;9.00;56.40
51029;DHT22;37054;52.054;8.600;2022-12-05T01:45:20;9.10;56.40
51029;DHT22;37054;52.054;8.600;2022-12-05T01:47:47;9.10;56.50
51029;DHT22;37054;52.054;8.600;2022-12-05T01:50:13;9.10;56.30
51029;DHT22;37054;52.054;8.600;2022-12-05T01:52:38;9.10;56.30
51029;DHT22;37054;52.054;8.600;2022-12-05T01:55:06;9.10;56.20
51029;DHT22;37054;52.054;8.600;2022-12-05T01:57:33;9.10;56.20
51029;DHT22;37054;52.054;8.600;2022-12-05T02:00:04;9.10;56.30
51029;DHT22;37054;52.054;8.600;2022-12-05T02:02:33;9.10;56.30
51029;DHT22;37054;52.054;8.600;2022-12-05T02:07:24;9.10;56.30
51029;DHT22;37054;52.054;8.600;2022-12-05T02:09:50;9.20;56.40
51029;DHT22;37054;52.054;8.600;2022-12-05T02:12:16;9.20;56.30
51029;DHT22;37054;52.054;8.600;2022-12-05T02:20:11;9.20;56.40
51029;DHT22;37054;52.054;8.600;2022-12-05T02:30:26;9.20;56.60
51029;DHT22;37054;52.054;8.600;2022-12-05T02:35:52;9.20;56.60
51029;DHT22;37054;52.054;8.600;2022-12-05T02:41:04;9.20;56.70
51029;DHT22;37054;52.054;8.600;2022-12-05T02:43:39;9.20;56.80
51029;DHT22;37054;52.054;8.600;2022-12-05T02:46:17;9.10;57.00
51029;DHT22;37054;52.054;8.600;2022-12-05T02:48:44;9.10;57.00
51029;DHT22;37054;52.054;8.600;2022-12-05T02:51:11;9.10;57.10
51029;DHT22;37054;52.054;8.600;2022-12-05T02:53:39;9.00;57.20
51029;DHT22;37054;52.054;8.600;2022-12-05T02:56:05;9.10;57.40
51029;DHT22;37054;52.054;8.600;2022-12-05T02:58:35;9.00;57.50
51029;DHT22;37054;52.054;8.600;2022-12-05T03:01:02;9.00;57.60
51029;DHT22;37054;52.054;8.600;2022-12-05T03:03:28;9.00;57.60
51029;DHT22;37054;52.054;8.600;2022-12-05T03:06:14;9.00;57.70
51029;DHT22;37054;52.054;8.600;2022-12-05T03:11:33;9.00;57.90
51029;DHT22;37054;52.054;8.600;2022-12-05T03:14:00;9.00;57.80
51029;DHT22;37054;52.054;8.600;2022-12-05T03:19:04;9.00;58.00
51029;DHT22;37054;52.054;8.600;2022-12-05T03:21:34;9.00;58.10
51029;DHT22;37054;52.054;8.600;2022-12-05T03:24:02;9.00;58.20
51029;DHT22;37054;52.054;8.600;2022-12-05T03:26:35;8.90;58.30
51029;DHT22;37054;52.054;8.600;2022-12-05T03:34:17;8.80;58.70
51029;DHT22;37054;52.054;8.600;2022-12-05T03:36:46;8.80;58.80
51029;DHT22;37054;52.054;8.600;2022-12-05T03:39:22;8.80;59.00
51029;DHT22;37054;52.054;8.600;2022-12-05T03:44:22;8.80;59.20
51029;DHT22;37054;52.054;8.600;2022-12-05T03:46:57;8.70;59.30
51029;DHT22;37054;52.054;8.600;2022-12-05T03:54:43;8.70;59.80
51029;DHT22;37054;52.054;8.600;2022-12-05T03:57:16;8.70;60.00
51029;DHT22;37054;52.054;8.600;2022-12-05T04:02:15;8.70;60.50
51029;DHT22;37054;52.054;8.600;2022-12-05T04:04:45;8.70;60.60
51029;DHT22;37054;52.054;8.600;2022-12-05T04:07:13;8.70;60.70
51029;DHT22;37054;52.054;8.600;2022-12-05T04:09:43;8.70;60.70
51029;DHT22;37054;52.054;8.600;2022-12-05T04:12:11;8.70;60.70
51029;DHT22;37054;52.054;8.600;2022-12-05T04:14:40;8.70;60.80
51029;DHT22;37054;52.054;8.600;2022-12-05T04:17:20;8.70;60.90
51029;DHT22;37054;52.054;8.600;2022-12-05T04:19:51;8.80;60.80
51029;DHT22;37054;52.054;8.600;2022-12-05T04:22:35;8.70;60.70
51029;DHT22;37054;52.054;8.600;2022-12-05T04:25:03;8.70;61.00
51029;DHT22;37054;52.054;8.600;2022-12-05T04:27:50;8.70;61.20
51029;DHT22;37054;52.054;8.600;2022-12-05T04:30:21;8.70;61.20
51029;DHT22;37054;52.054;8.600;2022-12-05T04:35:28;8.80;61.20
51029;DHT22;37054;52.054;8.600;2022-12-05T04:37:57;8.80;61.20
51029;DHT22;37054;52.054;8.600;2022-12-05T04:40:27;8.80;61.10
51029;DHT22;37054;52.054;8.600;2022-12-05T04:42:56;8.90;61.20
51029;DHT22;37054;52.054;8.600;2022-12-05T04:45:23;8.90;61.30
51029;DHT22;37054;52.054;8.600;2022-12-05T04:47:52;8.90;61.20
51029;DHT22;37054;52.054;8.600;2022-12-05T04:50:19;9.00;61.30
51029;DHT22;37054;52.054;8.600;2022-12-05T04:52:46;9.00;61.00
51029;DHT22;37054;52.054;8.600;2022-12-05T04:55:16;9.00;61.20
51029;DHT22;37054;52.054;8.600;2022-12-05T04:57:59;9.00;61.10
51029;DHT22;37054;52.054;8.600;2022-12-05T05:00:26;9.00;60.90
51029;DHT22;37054;52.054;8.600;2022-12-05T05:05:37;9.10;61.20
51029;DHT22;37054;52.054;8.600;2022-12-05T05:08:03;9.10;61.10
51029;DHT22;37054;52.054;8.600;2022-12-05T05:10:34;9.10;61.10
51029;DHT22;37054;52.054;8.600;2022-12-05T05:13:02;9.10;60.90
51029;DHT22;37054;52.054;8.600;2022-12-05T05:15:27;9.10;60.90
51029;DHT22;37054;52.054;8.600;2022-12-05T05:17:53;9.10;60.80
51029;DHT22;37054;52.054;8.600;2022-12-05T05:20:19;9.10;60.80
51029;DHT22;37054;52.054;8.600;2022-12-05T05:22:55;9.20;60.90
51029;DHT22;37054;52.054;8.600;2022-12-05T05:25:21;9.20;60.90
51029;DHT22;37054;52.054;8.600;2022-12-05T05:27:51;9.20;60.80
51029;DHT22;37054;52.054;8.600;2022-12-05T05:30:17;9.20;60.80
51029;DHT22;37054;52.054;8.600;2022-12-05T05:32:43;9.20;60.80
51029;DHT22;37054;52.054;8.600;2022-12-05T05:35:09;9.20;60.80
51029;DHT22;37054;52.054;8.600;2022-12-05T05:37:36;9.20;60.80
51029;DHT22;37054;52.054;8.600;2022-12-05T05:40:01;9.20;60.80
51029;DHT22;37054;52.054;8.600;2022-12-05T05:42:27;9.20;60.70
51029;DHT22;37054;52.054;8.600;2022-12-05T05:44:52;9.20;60.70
51029;DHT22;37054;52.054;8.600;2022-12-05T05:47:18;9.20;60.80
51029;DHT22;37054;52.054;8.600;2022-12-05T05:49:44;9.20;60.80
51029;DHT22;37054;52.054;8.600;2022-12-05T05:52:09;9.30;60.90
51029;DHT22;37054;52.054;8.600;2022-12-05T05:54:35;9.30;60.70
51029;DHT22;37054;52.054;8.600;2022-12-05T05:57:01;9.30;60.70
51029;DHT22;37054;52.054;8.600;2022-12-05T05:59:26;9.30;60.70
51029;DHT22;37054;52.054;8.600;2022-12-05T06:01:52;9.30;60.80
51029;DHT22;37054;52.054;8.600;2022-12-05T06:04:18;9.30;60.70
51029;DHT22;37054;52.054;8.600;2022-12-05T06:06:44;9.30;60.70
51029;DHT22;37054;52.054;8.600;2022-12-05T06:09:10;9.30;60.60
51029;DHT22;37054;52.054;8.600;2022-12-05T06:11:35;9.30;60.50
51029;DHT22;37054;52.054;8.600;2022-12-05T06:14:01;9.30;60.60
51029;DHT22;37054;52.054;8.600;2022-12-05T06:16:27;9.30;60.60
51029;DHT22;37054;52.054;8.600;2022-12-05T06:18:53;9.30;60.60
51029;DHT22;37054;52.054;8.600;2022-12-05T06:21:19;9.30;60.60
51029;DHT22;37054;52.054;8.600;2022-12-05T06:23:45;9.30;60.80
51029;DHT22;37054;52.054;8.600;2022-12-05T06:26:15;9.30;60.70
51029;DHT22;37054;52.054;8.600;2022-12-05T06:28:40;9.40;60.70
51029;DHT22;37054;52.054;8.600;2022-12-05T06:31:09;9.30;60.80
51029;DHT22;37054;52.054;8.600;2022-12-05T06:33:35;9.30;60.80
51029;DHT22;37054;52.054;8.600;2022-12-05T06:36:02;9.40;60.80
51029;DHT22;37054;52.054;8.600;2022-12-05T06:38:27;9.40;60.60
51029;DHT22;37054;52.054;8.600;2022-12-05T06:40:53;9.30;60.40
51029;DHT22;37054;52.054;8.600;2022-12-05T06:43:19;9.20;60.30
51029;DHT22;37054;52.054;8.600;2022-12-05T06:45:44;9.10;60.30
51029;DHT22;37054;52.054;8.600;2022-12-05T06:48:10;9.00;60.50
51029;DHT22;37054;52.054;8.600;2022-12-05T06:50:35;9.00;60.70
51029;DHT22;37054;52.054;8.600;2022-12-05T06:53:01;8.90;60.80
51029;DHT22;37054;52.054;8.600;2022-12-05T06:55:27;8.80;61.00
51029;DHT22;37054;52.054;8.600;2022-12-05T06:57:52;8.80;61.20
51029;DHT22;37054;52.054;8.600;2022-12-05T07:00:18;8.70;61.20
51029;DHT22;37054;52.054;8.600;2022-12-05T07:03:02;8.70;61.40
51029;DHT22;37054;52.054;8.600;2022-12-05T07:05:28;8.70;61.40
51029;DHT22;37054;52.054;8.600;2022-12-05T07:07:53;8.70;61.60
51029;DHT22;37054;52.054;8.600;2022-12-05T07:10:19;8.80;61.60
51029;DHT22;37054;52.054;8.600;2022-12-05T07:12:45;8.80;61.60
51029;DHT22;37054;52.054;8.600;2022-12-05T07:15:10;8.80;61.50
51029;DHT22;37054;52.054;8.600;2022-12-05T07:17:36;8.80;61.50
51029;DHT22;37054;52.054;8.600;2022-12-05T07:20:04;8.70;61.50
51029;DHT22;37054;52.054;8.600;2022-12-05T07:22:29;8.70;61.60
51029;DHT22;37054;52.054;8.600;2022-12-05T07:24:55;8.70;61.60
51029;DHT22;37054;52.054;8.600;2022-12-05T07:27:21;8.70;61.60
51029;DHT22;37054;52.054;8.600;2022-12-05T07:29:47;8.70;61.40
51029;DHT22;37054;52.054;8.600;2022-12-05T07:32:13;8.70;61.20
51029;DHT22;37054;52.054;8.600;2022-12-05T07:34:39;8.60;61.10
51029;DHT22;37054;52.054;8.600;2022-12-05T07:37:05;8.50;61.00
51029;DHT22;37054;52.054;8.600;2022-12-05T07:39:31;8.50;61.10
51029;DHT22;37054;52.054;8.600;2022-12-05T07:41:57;8.40;61.40
51029;DHT22;37054;52.054;8.600;2022-12-05T07:44:22;8.30;61.30
51029;DHT22;37054;52.054;8.600;2022-12-05T07:46:48;8.30;61.30
51029;DHT22;37054;52.054;8.600;2022-12-05T07:49:15;8.20;61.40
51029;DHT22;37054;52.054;8.600;2022-12-05T07:51:41;8.20;61.50
51029;DHT22;37054;52.054;8.600;2022-12-05T07:54:06;8.10;61.50
51029;DHT22;37054;52.054;8.600;2022-12-05T07:56:32;8.00;61.40
51029;DHT22;37054;52.054;8.600;2022-12-05T07:58:58;8.00;61.60
51029;DHT22;37054;52.054;8.600;2022-12-05T08:01:24;7.90;61.50
51029;DHT22;37054;52.054;8.600;2022-12-05T08:03:54;7.90;61.70
51029;DHT22;37054;52.054;8.600;2022-12-05T08:06:20;7.90;61.70
51029;DHT22;37054;52.054;8.600;2022-12-05T08:08:46;7.80;61.70
51029;DHT22;37054;52.054;8.600;2022-12-05T08:11:16;7.90;61.90
51029;DHT22;37054;52.054;8.600;2022-12-05T08:13:42;7.90;62.10
51029;DHT22;37054;52.054;8.600;2022-12-05T08:16:10;8.00;62.10
51029;DHT22;37054;52.054;8.600;2022-12-05T08:18:36;8.00;62.00
51029;DHT22;37054;52.054;8.600;2022-12-05T08:21:02;8.00;62.00
51029;DHT22;37054;52.054;8.600;2022-12-05T08:23:29;8.00;62.00
51029;DHT22;37054;52.054;8.600;2022-12-05T08:25:54;8.00;61.90
51029;DHT22;37054;52.054;8.600;2022-12-05T08:28:20;8.00;61.90
51029;DHT22;37054;52.054;8.600;2022-12-05T08:30:45;8.00;62.00
51029;DHT22;37054;52.054;8.600;2022-12-05T08:33:11;8.10;61.90
51029;DHT22;37054;52.054;8.600;2022-12-05T08:35:37;8.00;62.10
51029;DHT22;37054;52.054;8.600;2022-12-05T08:38:02;8.10;62.00
51029;DHT22;37054;52.054;8.600;2022-12-05T08:40:28;8.10;62.20
51029;DHT22;37054;52.054;8.600;2022-12-05T08:42:53;8.20;62.30
51029;DHT22;37054;52.054;8.600;2022-12-05T08:45:19;8.20;62.10
51029;DHT22;37054;52.054;8.600;2022-12-05T08:47:44;8.20;62.10
51029;DHT22;37054;52.054;8.600;2022-12-05T08:50:10;8.20;62.20
51029;DHT22;37054;52.054;8.600;2022-12-05T08:52:36;8.20;62.10
51029;DHT22;37054;52.054;8.600;2022-12-05T08:55:01;8.30;62.00
51029;DHT22;37054;52.054;8.600;2022-12-05T08:57:27;8.30;61.90
51029;DHT22;37054;52.054;8.600;2022-12-05T08:59:54;8.20;61.80
51029;DHT22;37054;52.054;8.600;2022-12-05T09:02:20;8.20;61.40
51029;DHT22;37054;52.054;8.600;2022-12-05T09:04:48;8.00;61.30
51029;DHT22;37054;52.054;8.600;2022-12-05T09:07:14;7.90;61.10
51029;DHT22;37054;52.054;8.600;2022-12-05T09:09:40;7.80;61.10
51029;DHT22;37054;52.054;8.600;2022-12-05T09:12:05;7.70;61.10
51029;DHT22;37054;52.054;8.600;2022-12-05T09:14:31;7.60;61.20
51029;DHT22;37054;52.054;8.600;2022-12-05T09:16:57;7.50;61.30
51029;DHT22;37054;52.054;8.600;2022-12-05T09:19:23;7.50;61.40
51029;DHT22;37054;52.054;8.600;2022-12-05T09:21:50;7.40;61.50
51029;DHT22;37054;52.054;8.600;2022-12-05T09:24:16;7.40;61.60
51029;DHT22;37054;52.054;8.600;2022-12-05T09:26:42;7.30;61.60
51029;DHT22;37054;52.054;8.600;2022-12-05T09:29:08;7.30;61.70
51029;DHT22;37054;52.054;8.600;2022-12-05T09:31:34;7.20;61.80
51029;DHT22;37054;52.054;8.600;2022-12-05T09:34:01;7.20;61.80
51029;DHT22;37054;52.054;8.600;2022-12-05T09:36:27;7.10;61.90
51029;DHT22;37054;52.054;8.600;2022-12-05T09:38:53;7.10;62.00
51029;DHT22;37054;52.054;8.600;2022-12-05T09:46:55;7.00;62.40
51029;DHT22;37054;52.054;8.600;2022-12-05T09:49:22;7.00;62.40
51029;DHT22;37054;52.054;8.600;2022-12-05T09:51:48;7.00;62.40
51029;DHT22;37054;52.054;8.600;2022-12-05T09:54:15;7.00;62.40
51029;DHT22;37054;52.054;8.600;2022-12-05T09:56:42;7.10;62.40
51029;DHT22;37054;52.054;8.600;2022-12-05T09:59:11;7.10;62.20
51029;DHT22;37054;52.054;8.600;2022-12-05T10:12:18;7.20;61.90
51029;DHT22;37054;52.054;8.600;2022-12-05T10:14:55;7.30;61.80
51029;DHT22;37054;52.054;8.600;2022-12-05T10:17:26;7.30;61.80
51029;DHT22;37054;52.054;8.600;2022-12-05T10:19:55;7.30;61.80
51029;DHT22;37054;52.054;8.600;2022-12-05T10:22:24;7.20;61.70
51029;DHT22;37054;52.054;8.600;2022-12-05T10:24:58;7.20;61.90
51029;DHT22;37054;52.054;8.600;2022-12-05T10:27:59;7.20;61.90
51029;DHT22;37054;52.054;8.600;2022-12-05T10:30:21;7.20;62.00
51029;DHT22;37054;52.054;8.600;2022-12-05T10:32:53;7.10;62.20
51029;DHT22;37054;52.054;8.600;2022-12-05T10:35:21;7.10;62.30
51029;DHT22;37054;52.054;8.600;2022-12-05T10:37:48;7.10;62.30
51029;DHT22;37054;52.054;8.600;2022-12-05T10:40:14;7.20;62.30
51029;DHT22;37054;52.054;8.600;2022-12-05T10:42:40;7.30;62.20
51029;DHT22;37054;52.054;8.600;2022-12-05T10:45:07;7.30;62.00
51029;DHT22;37054;52.054;8.600;2022-12-05T10:47:37;7.30;62.00
51029;DHT22;37054;52.054;8.600;2022-12-05T10:50:13;7.40;61.90
51029;DHT22;37054;52.054;8.600;2022-12-05T10:52:40;7.40;61.80
51029;DHT22;37054;52.054;8.600;2022-12-05T10:55:07;7.50;61.80
51029;DHT22;37054;52.054;8.600;2022-12-05T10:57:37;7.50;61.80
51029;DHT22;37054;52.054;8.600;2022-12-05T11:00:10;7.50;61.80
51029;DHT22;37054;52.054;8.600;2022-12-05T11:02:37;7.60;61.80
51029;DHT22;37054;52.054;8.600;2022-12-05T11:05:02;7.50;61.60
51029;DHT22;37054;52.054;8.600;2022-12-05T11:09:54;7.60;61.70
51029;DHT22;37054;52.054;8.600;2022-12-05T11:12:21;7.60;61.60
51029;DHT22;37054;52.054;8.600;2022-12-05T11:17:24;7.70;61.70
51029;DHT22;37054;52.054;8.600;2022-12-05T11:19:49;7.70;61.60
51029;DHT22;37054;52.054;8.600;2022-12-05T11:22:15;7.80;61.50
51029;DHT22;37054;52.054;8.600;2022-12-05T11:24:41;7.80;61.50
51029;DHT22;37054;52.054;8.600;2022-12-05T11:29:43;7.90;61.30
51029;DHT22;37054;52.054;8.600;2022-12-05T11:32:19;8.00;61.20
51029;DHT22;37054;52.054;8.600;2022-12-05T11:37:21;8.00;61.10
51029;DHT22;37054;52.054;8.600;2022-12-05T11:39:48;8.10;61.00
51029;DHT22;37054;52.054;8.600;2022-12-05T11:42:20;8.10;61.00
51029;DHT22;37054;52.054;8.600;2022-12-05T11:50:27;8.20;60.70
51029;DHT22;37054;52.054;8.600;2022-12-05T11:58:09;8.20;60.50
51029;DHT22;37054;52.054;8.600;2022-12-05T12:00:46;8.20;60.80
51029;DHT22;37054;52.054;8.600;2022-12-05T12:11:36;8.40;60.90
51029;DHT22;37054;52.054;8.600;2022-12-05T12:14:17;8.50;60.80
51029;DHT22;37054;52.054;8.600;2022-12-05T12:16:51;8.50;60.80
51029;DHT22;37054;52.054;8.600;2022-12-05T12:19:24;8.50;60.70
51029;DHT22;37054;52.054;8.600;2022-12-05T12:22:03;8.60;60.90
51029;DHT22;37054;52.054;8.600;2022-12-05T12:27:28;8.70;61.10
51029;DHT22;37054;52.054;8.600;2022-12-05T12:30:11;8.70;61.10
51029;DHT22;37054;52.054;8.600;2022-12-05T12:40:20;8.90;61.20
51029;DHT22;37054;52.054;8.600;2022-12-05T12:42:49;8.90;61.10
51029;DHT22;37054;52.054;8.600;2022-12-05T12:45:31;8.90;61.00
51029;DHT22;37054;52.054;8.600;2022-12-05T12:48:08;8.90;61.00
51029;DHT22;37054;52.054;8.600;2022-12-05T12:50:39;9.00;61.20
51029;DHT22;37054;52.054;8.600;2022-12-05T12:55:40;8.90;61.00
51029;DHT22;37054;52.054;8.600;2022-12-05T13:03:26;8.80;61.00
51029;DHT22;37054;52.054;8.600;2022-12-05T13:05:54;8.80;60.90
51029;DHT22;37054;52.054;8.600;2022-12-05T13:10:46;8.70;60.70
51029;DHT22;37054;52.054;8.600;2022-12-05T13:13:13;8.60;60.60
51029;DHT22;37054;52.054;8.600;2022-12-05T13:15:49;8.60;60.70
51029;DHT22;37054;52.054;8.600;2022-12-05T13:18:19;8.60;60.90
51029;DHT22;37054;52.054;8.600;2022-12-05T13:20:45;8.60;61.10
51029;DHT22;37054;52.054;8.600;2022-12-05T13:23:13;8.70;61.30
51029;DHT22;37054;52.054;8.600;2022-12-05T13:25:39;8.70;61.40
51029;DHT22;37054;52.054;8.600;2022-12-05T13:28:15;8.80;61.50
51029;DHT22;37054;52.054;8.600;2022-12-05T13:30:48;8.80;61.40
51029;DHT22;37054;52.054;8.600;2022-12-05T13:34:15;8.80;61.30
51029;DHT22;37054;52.054;8.600;2022-12-05T13:36:17;8.70;61.50
51029;DHT22;37054;52.054;8.600;2022-12-05T13:39:05;8.70;61.50
51029;DHT22;37054;52.054;8.600;2022-12-05T13:41:51;8.70;61.50
51029;DHT22;37054;52.054;8.600;2022-12-05T13:44:40;8.70;61.50
51029;DHT22;37054;52.054;8.600;2022-12-05T13:47:07;8.70;61.40
51029;DHT22;37054;52.054;8.600;2022-12-05T13:49:44;8.70;61.40
51029;DHT22;37054;52.054;8.600;2022-12-05T13:52:13;8.60;61.20
51029;DHT22;37054;52.054;8.600;2022-12-05T13:54:43;8.60;61.10
51029;DHT22;37054;52.054;8.600;2022-12-05T14:07:41;8.40;61.10
51029;DHT22;37054;52.054;8.600;2022-12-05T14:10:09;8.40;61.20
51029;DHT22;37054;52.054;8.600;2022-12-05T14:12:48;8.40;61.30
51029;DHT22;37054;52.054;8.600;2022-12-05T14:15:31;8.40;61.30
51029;DHT22;37054;52.054;8.600;2022-12-05T14:18:02;8.40;61.20
51029;DHT22;37054;52.054;8.600;2022-12-05T14:33:43;8.10;60.80
51029;DHT22;37054;52.054;8.600;2022-12-05T14:36:14;8.10;60.80
51029;DHT22;37054;52.054;8.600;2022-12-05T14:38:40;8.10;60.90
51029;DHT22;37054;52.054;8.600;2022-12-05T14:41:10;8.10;61.00
51029;DHT22;37054;52.054;8.600;2022-12-05T14:43:36;8.10;61.00
51029;DHT22;37054;52.054;8.600;2022-12-05T14:46:05;8.10;61.10
51029;DHT22;37054;52.054;8.600;2022-12-05T14:48:35;8.20;61.30
51029;DHT22;37054;52.054;8.600;2022-12-05T14:51:01;8.10;61.10
51029;DHT22;37054;52.054;8.600;2022-12-05T14:53:47;8.20;61.20
51029;DHT22;37054;52.054;8.600;2022-12-05T15:06:24;8.20;61.20
51029;DHT22;37054;52.054;8.600;2022-12-05T15:08:52;8.20;61.30
51029;DHT22;37054;52.054;8.600;2022-12-05T15:11:20;8.20;61.50
51029;DHT22;37054;52.054;8.600;2022-12-05T15:14:36;8.20;61.60
51029;DHT22;37054;52.054;8.600;2022-12-05T15:16:42;8.20;61.60
51029;DHT22;37054;52.054;8.600;2022-12-05T15:19:13;8.20;61.50
51029;DHT22;37054;52.054;8.600;2022-12-05T15:21:41;8.20;61.50
51029;DHT22;37054;52.054;8.600;2022-12-05T15:24:11;8.20;61.50
51029;DHT22;37054;52.054;8.600;2022-12-05T15:26:38;8.20;61.60
51029;DHT22;37054;52.054;8.600;2022-12-05T15:29:06;8.20;61.60
51029;DHT22;37054;52.054;8.600;2022-12-05T15:37:05;8.20;61.50
51029;DHT22;37054;52.054;8.600;2022-12-05T15:39:51;8.20;61.50
51029;DHT22;37054;52.054;8.600;2022-12-05T15:42:21;8.20;61.50
51029;DHT22;37054;52.054;8.600;2022-12-05T15:44:50;8.20;61.60
51029;DHT22;37054;52.054;8.600;2022-12-05T15:47:24;8.20;61.50
51029;DHT22;37054;52.054;8.600;2022-12-05T15:49:50;8.20;61.40
51029;DHT22;37054;52.054;8.600;2022-12-05T15:52:35;8.20;61.50
51029;DHT22;37054;52.054;8.600;2022-12-05T15:55:04;8.20;61.40
51029;DHT22;37054;52.054;8.600;2022-12-05T15:57:40;8.20;61.40
51029;DHT22;37054;52.054;8.600;2022-12-05T16:00:12;8.20;61.40
51029;DHT22;37054;52.054;8.600;2022-12-05T16:02:41;8.10;61.60
51029;DHT22;37054;52.054;8.600;2022-12-05T16:07:52;8.20;61.70
51029;DHT22;37054;52.054;8.600;2022-12-05T16:10:19;8.20;61.70
51029;DHT22;37054;52.054;8.600;2022-12-05T16:12:45;8.20;61.60
51029;DHT22;37054;52.054;8.600;2022-12-05T16:15:22;8.20;61.50
51029;DHT22;37054;52.054;8.600;2022-12-05T16:17:52;8.20;61.50
51029;DHT22;37054;52.054;8.600;2022-12-05T16:20:36;8.20;61.50
51029;DHT22;37054;52.054;8.600;2022-12-05T16:23:03;8.20;61.60
51029;DHT22;37054;52.054;8.600;2022-12-05T16:25:31;8.20;61.60
51029;DHT22;37054;52.054;8.600;2022-12-05T16:28:02;8.30;61.70
51029;DHT22;37054;52.054;8.600;2022-12-05T16:30:37;8.30;61.70
51029;DHT22;37054;52.054;8.600;2022-12-05T16:33:13;8.30;61.80
51029;DHT22;37054;52.054;8.600;2022-12-05T16:35:43;8.30;61.80
51029;DHT22;37054;52.054;8.600;2022-12-05T16:41:00;8.40;62.00
51029;DHT22;37054;52.054;8.600;2022-12-05T16:43:26;8.40;61.90
51029;DHT22;37054;52.054;8.600;2022-12-05T16:45:54;8.40;61.90
51029;DHT22;37054;52.054;8.600;2022-12-05T16:50:52;8.50;61.80
51029;DHT22;37054;52.054;8.600;2022-12-05T16:53:19;8.50;61.70
51029;DHT22;37054;52.054;8.600;2022-12-05T16:55:45;8.50;61.80
51029;DHT22;37054;52.054;8.600;2022-12-05T16:58:13;8.60;61.80
51029;DHT22;37054;52.054;8.600;2022-12-05T17:00:40;8.60;61.70
51029;DHT22;37054;52.054;8.600;2022-12-05T17:03:08;8.60;61.70
51029;DHT22;37054;52.054;8.600;2022-12-05T17:05:35;8.60;61.60
51029;DHT22;37054;52.054;8.600;2022-12-05T17:08:01;8.60;61.50
51029;DHT22;37054;52.054;8.600;2022-12-05T17:10:26;8.60;61.60
51029;DHT22;37054;52.054;8.600;2022-12-05T17:13:05;8.60;61.60
51029;DHT22;37054;52.054;8.600;2022-12-05T17:15:31;8.60;61.60
51029;DHT22;37054;52.054;8.600;2022-12-05T17:17:56;8.60;61.50
51029;DHT22;37054;52.054;8.600;2022-12-05T17:20:22;8.60;61.40
51029;DHT22;37054;52.054;8.600;2022-12-05T17:22:48;8.60;61.50
51029;DHT22;37054;52.054;8.600;2022-12-05T17:25:19;8.60;61.70
51029;DHT22;37054;52.054;8.600;2022-12-05T17:27:46;8.60;61.60
51029;DHT22;37054;52.054;8.600;2022-12-05T17:30:11;8.60;61.60
51029;DHT22;37054;52.054;8.600;2022-12-05T17:32:37;8.60;61.60
51029;DHT22;37054;52.054;8.600;2022-12-05T17:35:09;8.60;61.60
51029;DHT22;37054;52.054;8.600;2022-12-05T17:37:36;8.60;61.60
51029;DHT22;37054;52.054;8.600;2022-12-05T17:40:02;8.60;61.50
51029;DHT22;37054;52.054;8.600;2022-12-05T17:42:27;8.60;61.40
51029;DHT22;37054;52.054;8.600;2022-12-05T17:44:52;8.50;61.50
51029;DHT22;37054;52.054;8.600;2022-12-05T17:47:18;8.50;61.60
51029;DHT22;37054;52.054;8.600;2022-12-05T17:49:44;8.60;61.70
51029;DHT22;37054;52.054;8.600;2022-12-05T17:52:09;8.50;61.70
51029;DHT22;37054;52.054;8.600;2022-12-05T17:54:35;8.50;61.50
51029;DHT22;37054;52.054;8.600;2022-12-05T17:57:01;8.60;61.60
51029;DHT22;37054;52.054;8.600;2022-12-05T17:59:26;8.60;61.70
51029;DHT22;37054;52.054;8.600;2022-12-05T18:01:52;8.60;61.80
51029;DHT22;37054;52.054;8.600;2022-12-05T18:04:18;8.60;61.80
51029;DHT22;37054;52.054;8.600;2022-12-05T18:06:43;8.60;61.80
51029;DHT22;37054;52.054;8.600;2022-12-05T18:09:10;8.60;61.80
51029;DHT22;37054;52.054;8.600;2022-12-05T18:11:35;8.70;61.90
51029;DHT22;37054;52.054;8.600;2022-12-05T18:14:01;8.70;61.90
51029;DHT22;37054;52.054;8.600;2022-12-05T18:16:26;8.70;61.90
51029;DHT22;37054;52.054;8.600;2022-12-05T18:18:52;8.70;61.60
51029;DHT22;37054;52.054;8.600;2022-12-05T18:21:18;8.60;61.70
51029;DHT22;37054;52.054;8.600;2022-12-05T18:23:50;8.60;61.70
51029;DHT22;37054;52.054;8.600;2022-12-05T18:26:15;8.70;61.70
51029;DHT22;37054;52.054;8.600;2022-12-05T18:28:43;8.60;61.70
51029;DHT22;37054;52.054;8.600;2022-12-05T18:33:39;8.60;61.70
51029;DHT22;37054;52.054;8.600;2022-12-05T18:36:06;8.60;61.70